sensor_id;sensor_type;location;lat;lon;timestamp;P1;durP1;ratioP1;P2;durP2;ratioP2
54929;SDS011;40833;53.238;6.576;2023-11-21T00:00:00;39.10;;;7.10;;
54929;SDS011;40833;53.238;6.576;2023-11-21T00:02:26;31.50;;;5.93;;
54929;SDS011;40833;53.238;6.576;2023-11-21T00:04:52;26.67;;;5.50;;
54929;SDS011;40833;53.238;6.576;2023-11-21T00:07:18;25.73;;;5.57;;
54929;SDS011;40833;53.238;6.576;2023-11-21T00:09:43;29.20;;;5.83;;
54929;SDS011;40833;53.238;6.576;2023-11-21T00:12:09;32.13;;;5.33;;
54929;SDS011;40833;53.238;6.576;2023-11-21T00:14:36;29.40;;;5.27;;
54929;SDS011;40833;53.238;6.576;2023-11-21T00:17:03;39.53;;;5.33;;
54929;SDS011;40833;53.238;6.576;2023-11-21T00:19:30;31.67;;;6.40;;
54929;SDS011;40833;53.238;6.576;2023-11-21T00:21:56;34.50;;;5.97;;
54929;SDS011;40833;53.238;6.576;2023-11-21T00:24:23;34.77;;;6.00;;
54929;SDS011;40833;53.238;6.576;2023-11-21T00:26:50;29.50;;;6.07;;
54929;SDS011;40833;53.238;6.576;2023-11-21T00:29:16;33.70;;;6.03;;
54929;SDS011;40833;53.238;6.576;2023-11-21T00:31:43;30.40;;;6.20;;
54929;SDS011;40833;53.238;6.576;2023-11-21T00:34:09;28.53;;;6.03;;
54929;SDS011;40833;53.238;6.576;2023-11-21T00:36:36;32.57;;;6.20;;
54929;SDS011;40833;53.238;6.576;2023-11-21T00:39:02;28.20;;;5.83;;
54929;SDS011;40833;53.238;6.576;2023-11-21T00:41:29;38.93;;;7.00;;
54929;SDS011;40833;53.238;6.576;2023-11-21T00:43:54;32.87;;;6.63;;
54929;SDS011;40833;53.238;6.576;2023-11-21T00:46:20;37.10;;;7.50;;
54929;SDS011;40833;53.238;6.576;2023-11-21T00:48:46;36.23;;;6.80;;
54929;SDS011;40833;53.238;6.576;2023-11-21T00:51:12;40.47;;;7.90;;
54929;SDS011;40833;53.238;6.576;2023-11-21T00:53:37;45.50;;;8.00;;
54929;SDS011;40833;53.238;6.576;2023-11-21T00:56:04;36.57;;;7.10;;
54929;SDS011;40833;53.238;6.576;2023-11-21T00:58:30;36.10;;;7.87;;
54929;SDS011;40833;53.238;6.576;2023-11-21T01:00:56;40.03;;;7.93;;
54929;SDS011;40833;53.238;6.576;2023-11-21T01:03:21;41.60;;;7.53;;
54929;SDS011;40833;53.238;6.576;2023-11-21T01:05:47;40.03;;;7.37;;
54929;SDS011;40833;53.238;6.576;2023-11-21T01:08:15;42.43;;;8.60;;
54929;SDS011;40833;53.238;6.576;2023-11-21T01:10:41;36.17;;;7.47;;
54929;SDS011;40833;53.238;6.576;2023-11-21T01:13:06;40.27;;;7.63;;
54929;SDS011;40833;53.238;6.576;2023-11-21T01:15:32;50.17;;;9.93;;
54929;SDS011;40833;53.238;6.576;2023-11-21T01:17:59;34.60;;;8.47;;
54929;SDS011;40833;53.238;6.576;2023-11-21T01:20:25;41.70;;;8.83;;
54929;SDS011;40833;53.238;6.576;2023-11-21T01:22:51;47.90;;;9.37;;
54929;SDS011;40833;53.238;6.576;2023-11-21T01:25:17;51.23;;;8.87;;
54929;SDS011;40833;53.238;6.576;2023-11-21T01:27:42;46.20;;;9.53;;
54929;SDS011;40833;53.238;6.576;2023-11-21T01:30:08;34.10;;;8.40;;
54929;SDS011;40833;53.238;6.576;2023-11-21T01:32:38;45.03;;;8.63;;
54929;SDS011;40833;53.238;6.576;2023-11-21T01:35:04;49.20;;;9.27;;
54929;SDS011;40833;53.238;6.576;2023-11-21T01:37:31;52.00;;;9.50;;
54929;SDS011;40833;53.238;6.576;2023-11-21T01:39:58;42.53;;;9.80;;
54929;SDS011;40833;53.238;6.576;2023-11-21T01:42:24;51.77;;;10.10;;
54929;SDS011;40833;53.238;6.576;2023-11-21T01:44:49;37.60;;;9.80;;
54929;SDS011;40833;53.238;6.576;2023-11-21T01:47:15;51.07;;;12.77;;
54929;SDS011;40833;53.238;6.576;2023-11-21T01:49:45;39.73;;;9.23;;
54929;SDS011;40833;53.238;6.576;2023-11-21T01:52:11;36.50;;;9.00;;
54929;SDS011;40833;53.238;6.576;2023-11-21T01:54:37;48.50;;;11.13;;
54929;SDS011;40833;53.238;6.576;2023-11-21T01:57:04;53.33;;;11.60;;
54929;SDS011;40833;53.238;6.576;2023-11-21T01:59:34;55.80;;;11.67;;
54929;SDS011;40833;53.238;6.576;2023-11-21T02:02:08;53.43;;;11.77;;
54929;SDS011;40833;53.238;6.576;2023-11-21T02:04:34;66.47;;;10.75;;
54929;SDS011;40833;53.238;6.576;2023-11-21T02:07:01;47.40;;;10.73;;
54929;SDS011;40833;53.238;6.576;2023-11-21T02:09:30;41.17;;;11.37;;
54929;SDS011;40833;53.238;6.576;2023-11-21T02:11:56;52.30;;;11.93;;
54929;SDS011;40833;53.238;6.576;2023-11-21T02:14:26;55.80;;;11.73;;
54929;SDS011;40833;53.238;6.576;2023-11-21T02:16:53;53.33;;;13.53;;
54929;SDS011;40833;53.238;6.576;2023-11-21T02:19:21;70.03;;;13.23;;
54929;SDS011;40833;53.238;6.576;2023-11-21T02:21:54;54.77;;;12.77;;
54929;SDS011;40833;53.238;6.576;2023-11-21T02:24:24;64.17;;;12.77;;
54929;SDS011;40833;53.238;6.576;2023-11-21T02:26:50;68.77;;;14.43;;
54929;SDS011;40833;53.238;6.576;2023-11-21T02:29:19;77.43;;;14.60;;
54929;SDS011;40833;53.238;6.576;2023-11-21T02:31:53;51.00;;;13.23;;
54929;SDS011;40833;53.238;6.576;2023-11-21T02:34:20;65.57;;;12.73;;
54929;SDS011;40833;53.238;6.576;2023-11-21T02:36:47;65.67;;;13.40;;
54929;SDS011;40833;53.238;6.576;2023-11-21T02:39:16;44.93;;;12.27;;
54929;SDS011;40833;53.238;6.576;2023-11-21T02:41:43;53.33;;;12.87;;
54929;SDS011;40833;53.238;6.576;2023-11-21T02:44:09;56.87;;;12.33;;
54929;SDS011;40833;53.238;6.576;2023-11-21T02:46:35;51.53;;;12.33;;
54929;SDS011;40833;53.238;6.576;2023-11-21T02:49:04;75.70;;;15.03;;
54929;SDS011;40833;53.238;6.576;2023-11-21T02:51:35;62.50;;;13.00;;
54929;SDS011;40833;53.238;6.576;2023-11-21T02:54:03;62.97;;;14.10;;
54929;SDS011;40833;53.238;6.576;2023-11-21T02:56:31;86.43;;;16.80;;
54929;SDS011;40833;53.238;6.576;2023-11-21T02:58:58;60.07;;;13.80;;
54929;SDS011;40833;53.238;6.576;2023-11-21T03:01:25;65.00;;;13.43;;
54929;SDS011;40833;53.238;6.576;2023-11-21T03:03:52;73.60;;;13.87;;
54929;SDS011;40833;53.238;6.576;2023-11-21T03:06:18;64.30;;;13.73;;
54929;SDS011;40833;53.238;6.576;2023-11-21T03:08:45;97.77;;;15.67;;
54929;SDS011;40833;53.238;6.576;2023-11-21T03:11:11;89.30;;;15.53;;
54929;SDS011;40833;53.238;6.576;2023-11-21T03:13:38;68.30;;;13.53;;
54929;SDS011;40833;53.238;6.576;2023-11-21T03:16:06;87.40;;;16.20;;
54929;SDS011;40833;53.238;6.576;2023-11-21T03:18:38;92.63;;;15.47;;
54929;SDS011;40833;53.238;6.576;2023-11-21T03:21:05;100.93;;;16.20;;
54929;SDS011;40833;53.238;6.576;2023-11-21T03:23:34;85.20;;;15.30;;
54929;SDS011;40833;53.238;6.576;2023-11-21T03:26:00;63.77;;;14.97;;
54929;SDS011;40833;53.238;6.576;2023-11-21T03:28:26;99.43;;;15.87;;
54929;SDS011;40833;53.238;6.576;2023-11-21T03:30:52;101.00;;;15.67;;
54929;SDS011;40833;53.238;6.576;2023-11-21T03:33:19;95.73;;;15.93;;
54929;SDS011;40833;53.238;6.576;2023-11-21T03:35:44;98.17;;;15.20;;
54929;SDS011;40833;53.238;6.576;2023-11-21T03:38:10;73.80;;;14.43;;
54929;SDS011;40833;53.238;6.576;2023-11-21T03:40:36;80.87;;;14.90;;
54929;SDS011;40833;53.238;6.576;2023-11-21T03:43:01;63.10;;;14.27;;
54929;SDS011;40833;53.238;6.576;2023-11-21T03:45:28;95.50;;;15.30;;
54929;SDS011;40833;53.238;6.576;2023-11-21T03:47:53;145.30;;;19.50;;
54929;SDS011;40833;53.238;6.576;2023-11-21T03:50:19;77.93;;;16.33;;
54929;SDS011;40833;53.238;6.576;2023-11-21T03:52:45;85.67;;;14.83;;
54929;SDS011;40833;53.238;6.576;2023-11-21T03:55:10;65.47;;;12.90;;
54929;SDS011;40833;53.238;6.576;2023-11-21T03:57:36;83.63;;;15.63;;
54929;SDS011;40833;53.238;6.576;2023-11-21T04:00:02;79.50;;;15.80;;
54929;SDS011;40833;53.238;6.576;2023-11-21T04:02:30;91.73;;;15.50;;
54929;SDS011;40833;53.238;6.576;2023-11-21T04:04:56;95.40;;;16.63;;
54929;SDS011;40833;53.238;6.576;2023-11-21T04:07:22;126.13;;;18.27;;
54929;SDS011;40833;53.238;6.576;2023-11-21T04:09:48;120.67;;;19.87;;
54929;SDS011;40833;53.238;6.576;2023-11-21T04:12:14;95.93;;;16.90;;
54929;SDS011;40833;53.238;6.576;2023-11-21T04:14:39;162.43;;;20.83;;
54929;SDS011;40833;53.238;6.576;2023-11-21T04:17:05;110.20;;;18.30;;
54929;SDS011;40833;53.238;6.576;2023-11-21T04:19:31;111.93;;;19.37;;
54929;SDS011;40833;53.238;6.576;2023-11-21T04:21:57;124.43;;;18.90;;
54929;SDS011;40833;53.238;6.576;2023-11-21T04:24:23;105.97;;;18.07;;
54929;SDS011;40833;53.238;6.576;2023-11-21T04:26:48;83.13;;;17.73;;
54929;SDS011;40833;53.238;6.576;2023-11-21T04:29:14;83.17;;;16.53;;
54929;SDS011;40833;53.238;6.576;2023-11-21T04:31:39;116.77;;;19.23;;
54929;SDS011;40833;53.238;6.576;2023-11-21T04:34:06;110.90;;;17.07;;
54929;SDS011;40833;53.238;6.576;2023-11-21T04:36:33;89.33;;;17.47;;
54929;SDS011;40833;53.238;6.576;2023-11-21T04:39:00;96.50;;;17.13;;
54929;SDS011;40833;53.238;6.576;2023-11-21T04:41:25;96.47;;;16.80;;
54929;SDS011;40833;53.238;6.576;2023-11-21T04:43:51;99.33;;;17.80;;
54929;SDS011;40833;53.238;6.576;2023-11-21T04:46:17;88.23;;;16.47;;
54929;SDS011;40833;53.238;6.576;2023-11-21T04:48:43;70.90;;;15.60;;
54929;SDS011;40833;53.238;6.576;2023-11-21T04:51:09;110.63;;;19.60;;
54929;SDS011;40833;53.238;6.576;2023-11-21T04:53:36;95.57;;;17.17;;
54929;SDS011;40833;53.238;6.576;2023-11-21T04:56:02;130.27;;;18.83;;
54929;SDS011;40833;53.238;6.576;2023-11-21T04:58:28;92.53;;;17.67;;
54929;SDS011;40833;53.238;6.576;2023-11-21T05:00:54;117.93;;;19.30;;
54929;SDS011;40833;53.238;6.576;2023-11-21T05:03:20;87.67;;;17.30;;
54929;SDS011;40833;53.238;6.576;2023-11-21T05:05:45;84.70;;;17.73;;
54929;SDS011;40833;53.238;6.576;2023-11-21T05:08:11;65.43;;;15.83;;
54929;SDS011;40833;53.238;6.576;2023-11-21T05:10:37;72.23;;;17.87;;
54929;SDS011;40833;53.238;6.576;2023-11-21T05:13:04;66.67;;;15.73;;
54929;SDS011;40833;53.238;6.576;2023-11-21T05:15:34;64.80;;;16.00;;
54929;SDS011;40833;53.238;6.576;2023-11-21T05:18:00;56.07;;;14.47;;
54929;SDS011;40833;53.238;6.576;2023-11-21T05:20:26;42.57;;;13.90;;
54929;SDS011;40833;53.238;6.576;2023-11-21T05:22:51;59.57;;;14.53;;
54929;SDS011;40833;53.238;6.576;2023-11-21T05:25:17;43.47;;;14.17;;
54929;SDS011;40833;53.238;6.576;2023-11-21T05:27:46;44.40;;;14.50;;
54929;SDS011;40833;53.238;6.576;2023-11-21T05:30:13;50.00;;;14.13;;
54929;SDS011;40833;53.238;6.576;2023-11-21T05:32:39;52.23;;;14.40;;
54929;SDS011;40833;53.238;6.576;2023-11-21T05:35:07;53.73;;;15.87;;
54929;SDS011;40833;53.238;6.576;2023-11-21T05:37:37;48.47;;;15.67;;
54929;SDS011;40833;53.238;6.576;2023-11-21T05:40:06;44.70;;;15.43;;
54929;SDS011;40833;53.238;6.576;2023-11-21T05:42:36;46.33;;;16.33;;
54929;SDS011;40833;53.238;6.576;2023-11-21T05:45:03;58.30;;;17.53;;
54929;SDS011;40833;53.238;6.576;2023-11-21T05:47:39;75.27;;;18.90;;
54929;SDS011;40833;53.238;6.576;2023-11-21T05:50:07;58.23;;;17.17;;
54929;SDS011;40833;53.238;6.576;2023-11-21T05:52:39;52.67;;;17.60;;
54929;SDS011;40833;53.238;6.576;2023-11-21T05:55:09;49.13;;;16.23;;
54929;SDS011;40833;53.238;6.576;2023-11-21T05:57:36;56.87;;;17.23;;
54929;SDS011;40833;53.238;6.576;2023-11-21T06:00:06;66.40;;;17.50;;
54929;SDS011;40833;53.238;6.576;2023-11-21T06:02:38;63.93;;;16.73;;
54929;SDS011;40833;53.238;6.576;2023-11-21T06:05:05;76.77;;;18.90;;
54929;SDS011;40833;53.238;6.576;2023-11-21T06:07:34;84.67;;;20.50;;
54929;SDS011;40833;53.238;6.576;2023-11-21T06:10:07;80.13;;;20.13;;
54929;SDS011;40833;53.238;6.576;2023-11-21T06:12:35;73.80;;;20.40;;
54929;SDS011;40833;53.238;6.576;2023-11-21T06:15:01;76.67;;;20.33;;
54929;SDS011;40833;53.238;6.576;2023-11-21T06:17:30;84.60;;;20.67;;
54929;SDS011;40833;53.238;6.576;2023-11-21T06:20:01;81.50;;;19.10;;
54929;SDS011;40833;53.238;6.576;2023-11-21T06:22:29;68.03;;;18.73;;
54929;SDS011;40833;53.238;6.576;2023-11-21T06:24:55;62.30;;;16.93;;
54929;SDS011;40833;53.238;6.576;2023-11-21T06:27:21;58.07;;;17.90;;
54929;SDS011;40833;53.238;6.576;2023-11-21T06:29:47;56.57;;;16.80;;
54929;SDS011;40833;53.238;6.576;2023-11-21T06:32:12;55.10;;;15.90;;
54929;SDS011;40833;53.238;6.576;2023-11-21T06:34:41;61.77;;;17.63;;
54929;SDS011;40833;53.238;6.576;2023-11-21T06:37:06;72.37;;;16.17;;
54929;SDS011;40833;53.238;6.576;2023-11-21T06:39:32;46.57;;;15.20;;
54929;SDS011;40833;53.238;6.576;2023-11-21T06:41:58;73.53;;;17.03;;
54929;SDS011;40833;53.238;6.576;2023-11-21T06:44:25;66.70;;;16.57;;
54929;SDS011;40833;53.238;6.576;2023-11-21T06:46:51;55.37;;;17.80;;
54929;SDS011;40833;53.238;6.576;2023-11-21T06:49:16;54.87;;;17.43;;
54929;SDS011;40833;53.238;6.576;2023-11-21T06:51:42;62.83;;;18.10;;
54929;SDS011;40833;53.238;6.576;2023-11-21T06:54:08;57.30;;;19.37;;
54929;SDS011;40833;53.238;6.576;2023-11-21T06:56:34;44.80;;;18.00;;
54929;SDS011;40833;53.238;6.576;2023-11-21T06:59:00;51.37;;;19.27;;
54929;SDS011;40833;53.238;6.576;2023-11-21T07:01:25;54.03;;;18.90;;
54929;SDS011;40833;53.238;6.576;2023-11-21T07:03:51;62.93;;;19.77;;
54929;SDS011;40833;53.238;6.576;2023-11-21T07:06:16;65.80;;;21.00;;
54929;SDS011;40833;53.238;6.576;2023-11-21T07:08:42;68.80;;;22.50;;
54929;SDS011;40833;53.238;6.576;2023-11-21T07:11:08;84.43;;;24.73;;
54929;SDS011;40833;53.238;6.576;2023-11-21T07:13:33;68.53;;;24.30;;
54929;SDS011;40833;53.238;6.576;2023-11-21T07:15:59;64.83;;;23.50;;
54929;SDS011;40833;53.238;6.576;2023-11-21T07:18:25;76.80;;;25.07;;
54929;SDS011;40833;53.238;6.576;2023-11-21T07:20:50;70.27;;;24.10;;
54929;SDS011;40833;53.238;6.576;2023-11-21T07:23:17;68.13;;;23.83;;
54929;SDS011;40833;53.238;6.576;2023-11-21T07:25:42;56.60;;;21.17;;
54929;SDS011;40833;53.238;6.576;2023-11-21T07:28:08;54.83;;;20.97;;
54929;SDS011;40833;53.238;6.576;2023-11-21T07:30:34;55.83;;;20.57;;
54929;SDS011;40833;53.238;6.576;2023-11-21T07:33:00;53.60;;;20.80;;
54929;SDS011;40833;53.238;6.576;2023-11-21T07:35:25;52.83;;;21.13;;
54929;SDS011;40833;53.238;6.576;2023-11-21T07:37:51;47.53;;;20.27;;
54929;SDS011;40833;53.238;6.576;2023-11-21T07:40:17;47.67;;;20.47;;
54929;SDS011;40833;53.238;6.576;2023-11-21T07:42:43;51.10;;;19.83;;
54929;SDS011;40833;53.238;6.576;2023-11-21T07:45:08;51.77;;;21.23;;
54929;SDS011;40833;53.238;6.576;2023-11-21T07:47:34;54.43;;;21.47;;
54929;SDS011;40833;53.238;6.576;2023-11-21T07:50:01;50.53;;;20.13;;
54929;SDS011;40833;53.238;6.576;2023-11-21T07:52:28;47.93;;;20.60;;
54929;SDS011;40833;53.238;6.576;2023-11-21T07:54:54;46.33;;;19.90;;
54929;SDS011;40833;53.238;6.576;2023-11-21T07:57:19;47.70;;;20.67;;
54929;SDS011;40833;53.238;6.576;2023-11-21T07:59:45;60.07;;;21.00;;
54929;SDS011;40833;53.238;6.576;2023-11-21T08:02:10;48.20;;;21.37;;
54929;SDS011;40833;53.238;6.576;2023-11-21T08:04:36;53.93;;;22.27;;
54929;SDS011;40833;53.238;6.576;2023-11-21T08:07:02;58.67;;;21.13;;
54929;SDS011;40833;53.238;6.576;2023-11-21T08:09:28;56.17;;;23.27;;
54929;SDS011;40833;53.238;6.576;2023-11-21T08:11:55;55.77;;;24.20;;
54929;SDS011;40833;53.238;6.576;2023-11-21T08:14:21;47.93;;;22.50;;
54929;SDS011;40833;53.238;6.576;2023-11-21T08:16:50;48.90;;;23.60;;
54929;SDS011;40833;53.238;6.576;2023-11-21T08:19:16;54.23;;;22.20;;
54929;SDS011;40833;53.238;6.576;2023-11-21T08:21:43;44.03;;;21.60;;
54929;SDS011;40833;53.238;6.576;2023-11-21T08:24:09;50.70;;;23.33;;
54929;SDS011;40833;53.238;6.576;2023-11-21T08:26:36;45.40;;;22.90;;
54929;SDS011;40833;53.238;6.576;2023-11-21T08:29:03;40.43;;;21.30;;
54929;SDS011;40833;53.238;6.576;2023-11-21T08:31:28;43.13;;;20.97;;
54929;SDS011;40833;53.238;6.576;2023-11-21T08:33:54;40.70;;;21.80;;
54929;SDS011;40833;53.238;6.576;2023-11-21T08:36:21;34.13;;;19.70;;
54929;SDS011;40833;53.238;6.576;2023-11-21T08:38:50;33.90;;;19.47;;
54929;SDS011;40833;53.238;6.576;2023-11-21T08:41:19;32.67;;;19.77;;
54929;SDS011;40833;53.238;6.576;2023-11-21T08:43:47;32.17;;;19.23;;
54929;SDS011;40833;53.238;6.576;2023-11-21T08:46:15;41.40;;;20.63;;
54929;SDS011;40833;53.238;6.576;2023-11-21T08:48:42;40.83;;;20.53;;
54929;SDS011;40833;53.238;6.576;2023-11-21T08:51:09;36.63;;;20.37;;
54929;SDS011;40833;53.238;6.576;2023-11-21T08:53:36;35.80;;;21.27;;
54929;SDS011;40833;53.238;6.576;2023-11-21T08:56:03;28.77;;;18.13;;
54929;SDS011;40833;53.238;6.576;2023-11-21T08:58:29;28.27;;;17.73;;
54929;SDS011;40833;53.238;6.576;2023-11-21T09:00:57;26.60;;;17.03;;
54929;SDS011;40833;53.238;6.576;2023-11-21T09:03:23;19.43;;;15.07;;
54929;SDS011;40833;53.238;6.576;2023-11-21T09:05:48;22.37;;;14.70;;
54929;SDS011;40833;53.238;6.576;2023-11-21T09:08:15;20.20;;;14.03;;
54929;SDS011;40833;53.238;6.576;2023-11-21T09:10:41;19.50;;;13.30;;
54929;SDS011;40833;53.238;6.576;2023-11-21T09:13:08;18.43;;;14.30;;
54929;SDS011;40833;53.238;6.576;2023-11-21T09:15:35;21.67;;;14.50;;
54929;SDS011;40833;53.238;6.576;2023-11-21T09:18:00;23.67;;;15.20;;
54929;SDS011;40833;53.238;6.576;2023-11-21T09:20:27;25.17;;;15.93;;
54929;SDS011;40833;53.238;6.576;2023-11-21T09:22:53;25.10;;;15.27;;
54929;SDS011;40833;53.238;6.576;2023-11-21T09:25:20;21.03;;;14.90;;
54929;SDS011;40833;53.238;6.576;2023-11-21T09:27:46;20.20;;;13.33;;
54929;SDS011;40833;53.238;6.576;2023-11-21T09:30:12;20.07;;;13.93;;
54929;SDS011;40833;53.238;6.576;2023-11-21T09:32:39;15.70;;;11.83;;
54929;SDS011;40833;53.238;6.576;2023-11-21T09:35:05;15.93;;;11.60;;
54929;SDS011;40833;53.238;6.576;2023-11-21T09:37:33;18.13;;;12.73;;
54929;SDS011;40833;53.238;6.576;2023-11-21T09:39:59;18.50;;;12.77;;
54929;SDS011;40833;53.238;6.576;2023-11-21T09:42:38;16.93;;;12.40;;
54929;SDS011;40833;53.238;6.576;2023-11-21T09:47:54;15.13;;;10.47;;
54929;SDS011;40833;53.238;6.576;2023-11-21T09:50:20;15.97;;;11.60;;
54929;SDS011;40833;53.238;6.576;2023-11-21T09:55:32;13.37;;;10.20;;
54929;SDS011;40833;53.238;6.576;2023-11-21T09:58:03;15.13;;;9.32;;
54929;SDS011;40833;53.238;6.576;2023-11-21T10:00:32;17.70;;;10.53;;
54929;SDS011;40833;53.238;6.576;2023-11-21T10:02:58;13.07;;;9.30;;
54929;SDS011;40833;53.238;6.576;2023-11-21T10:05:25;10.40;;;8.37;;
54929;SDS011;40833;53.238;6.576;2023-11-21T10:07:51;10.50;;;8.77;;
54929;SDS011;40833;53.238;6.576;2023-11-21T10:10:19;12.53;;;8.83;;
54929;SDS011;40833;53.238;6.576;2023-11-21T10:12:48;12.13;;;8.93;;
54929;SDS011;40833;53.238;6.576;2023-11-21T10:15:18;12.80;;;8.05;;
54929;SDS011;40833;53.238;6.576;2023-11-21T10:17:46;12.23;;;9.80;;
54929;SDS011;40833;53.238;6.576;2023-11-21T10:20:14;11.83;;;9.03;;
54929;SDS011;40833;53.238;6.576;2023-11-21T10:22:41;10.20;;;8.17;;
54929;SDS011;40833;53.238;6.576;2023-11-21T10:25:08;14.83;;;8.17;;
54929;SDS011;40833;53.238;6.576;2023-11-21T10:27:35;12.03;;;8.63;;
54929;SDS011;40833;53.238;6.576;2023-11-21T10:30:05;10.10;;;7.63;;
54929;SDS011;40833;53.238;6.576;2023-11-21T10:32:37;11.05;;;7.75;;
54929;SDS011;40833;53.238;6.576;2023-11-21T10:35:07;12.50;;;7.27;;
54929;SDS011;40833;53.238;6.576;2023-11-21T10:37:38;9.57;;;7.20;;
54929;SDS011;40833;53.238;6.576;2023-11-21T10:40:06;9.83;;;7.63;;
54929;SDS011;40833;53.238;6.576;2023-11-21T10:42:33;9.60;;;7.50;;
54929;SDS011;40833;53.238;6.576;2023-11-21T10:44:58;9.33;;;7.77;;
54929;SDS011;40833;53.238;6.576;2023-11-21T10:47:25;11.50;;;7.57;;
54929;SDS011;40833;53.238;6.576;2023-11-21T10:49:51;10.87;;;7.33;;
54929;SDS011;40833;53.238;6.576;2023-11-21T10:52:20;10.30;;;7.97;;
54929;SDS011;40833;53.238;6.576;2023-11-21T10:54:45;10.60;;;7.83;;
54929;SDS011;40833;53.238;6.576;2023-11-21T10:57:13;11.50;;;8.10;;
54929;SDS011;40833;53.238;6.576;2023-11-21T10:59:42;9.33;;;7.20;;
54929;SDS011;40833;53.238;6.576;2023-11-21T11:02:20;10.73;;;8.07;;
54929;SDS011;40833;53.238;6.576;2023-11-21T11:04:57;10.27;;;8.17;;
54929;SDS011;40833;53.238;6.576;2023-11-21T11:07:26;10.97;;;7.37;;
54929;SDS011;40833;53.238;6.576;2023-11-21T11:09:56;11.33;;;7.53;;
54929;SDS011;40833;53.238;6.576;2023-11-21T11:12:24;9.03;;;7.47;;
54929;SDS011;40833;53.238;6.576;2023-11-21T11:14:49;10.87;;;7.50;;
54929;SDS011;40833;53.238;6.576;2023-11-21T11:17:18;7.83;;;7.03;;
54929;SDS011;40833;53.238;6.576;2023-11-21T11:19:45;10.27;;;7.60;;
54929;SDS011;40833;53.238;6.576;2023-11-21T11:22:29;10.53;;;6.73;;
54929;SDS011;40833;53.238;6.576;2023-11-21T11:28:10;8.70;;;6.83;;
54929;SDS011;40833;53.238;6.576;2023-11-21T11:30:41;9.00;;;6.80;;
54929;SDS011;40833;53.238;6.576;2023-11-21T11:36:02;10.00;;;8.17;;
54929;SDS011;40833;53.238;6.576;2023-11-21T11:38:31;8.80;;;6.77;;
54929;SDS011;40833;53.238;6.576;2023-11-21T11:41:03;10.07;;;7.00;;
54929;SDS011;40833;53.238;6.576;2023-11-21T11:43:30;10.13;;;6.87;;
54929;SDS011;40833;53.238;6.576;2023-11-21T11:46:09;7.90;;;6.40;;
54929;SDS011;40833;53.238;6.576;2023-11-21T11:48:38;9.40;;;6.87;;
54929;SDS011;40833;53.238;6.576;2023-11-21T11:51:14;8.63;;;6.57;;
54929;SDS011;40833;53.238;6.576;2023-11-21T11:53:42;10.07;;;7.10;;
54929;SDS011;40833;53.238;6.576;2023-11-21T11:59:00;9.70;;;6.03;;
54929;SDS011;40833;53.238;6.576;2023-11-21T12:01:32;7.13;;;5.43;;
54929;SDS011;40833;53.238;6.576;2023-11-21T12:04:32;7.17;;;6.37;;
54929;SDS011;40833;53.238;6.576;2023-11-21T12:07:02;10.93;;;6.70;;
54929;SDS011;40833;53.238;6.576;2023-11-21T12:09:28;12.37;;;7.57;;
54929;SDS011;40833;53.238;6.576;2023-11-21T12:11:56;10.53;;;6.73;;
54929;SDS011;40833;53.238;6.576;2023-11-21T12:14:22;9.33;;;6.60;;
54929;SDS011;40833;53.238;6.576;2023-11-21T12:16:48;7.87;;;6.27;;
54929;SDS011;40833;53.238;6.576;2023-11-21T12:19:14;8.90;;;5.93;;
54929;SDS011;40833;53.238;6.576;2023-11-21T12:21:40;9.73;;;6.10;;
54929;SDS011;40833;53.238;6.576;2023-11-21T12:24:06;8.13;;;6.47;;
54929;SDS011;40833;53.238;6.576;2023-11-21T12:26:34;8.27;;;6.80;;
54929;SDS011;40833;53.238;6.576;2023-11-21T12:29:01;6.67;;;5.97;;
54929;SDS011;40833;53.238;6.576;2023-11-21T12:31:29;8.87;;;6.70;;
54929;SDS011;40833;53.238;6.576;2023-11-21T12:33:56;10.07;;;6.73;;
54929;SDS011;40833;53.238;6.576;2023-11-21T12:36:22;7.13;;;6.43;;
54929;SDS011;40833;53.238;6.576;2023-11-21T12:38:48;12.80;;;6.60;;
54929;SDS011;40833;53.238;6.576;2023-11-21T12:41:14;8.83;;;5.67;;
54929;SDS011;40833;53.238;6.576;2023-11-21T12:43:42;6.87;;;5.57;;
54929;SDS011;40833;53.238;6.576;2023-11-21T12:46:08;8.47;;;6.03;;
54929;SDS011;40833;53.238;6.576;2023-11-21T12:48:38;9.43;;;6.23;;
54929;SDS011;40833;53.238;6.576;2023-11-21T12:51:05;10.03;;;6.70;;
54929;SDS011;40833;53.238;6.576;2023-11-21T12:53:32;7.87;;;6.17;;
54929;SDS011;40833;53.238;6.576;2023-11-21T12:56:06;9.40;;;6.68;;
54929;SDS011;40833;53.238;6.576;2023-11-21T12:58:39;11.50;;;7.50;;
54929;SDS011;40833;53.238;6.576;2023-11-21T13:01:06;11.30;;;7.70;;
54929;SDS011;40833;53.238;6.576;2023-11-21T13:03:39;9.17;;;6.60;;
54929;SDS011;40833;53.238;6.576;2023-11-21T13:06:05;9.77;;;7.27;;
54929;SDS011;40833;53.238;6.576;2023-11-21T13:08:32;8.13;;;6.37;;
54929;SDS011;40833;53.238;6.576;2023-11-21T13:10:59;10.63;;;6.37;;
54929;SDS011;40833;53.238;6.576;2023-11-21T13:13:26;8.77;;;6.63;;
54929;SDS011;40833;53.238;6.576;2023-11-21T13:15:55;6.83;;;5.77;;
54929;SDS011;40833;53.238;6.576;2023-11-21T13:18:25;8.47;;;5.93;;
54929;SDS011;40833;53.238;6.576;2023-11-21T13:20:55;9.67;;;6.00;;
54929;SDS011;40833;53.238;6.576;2023-11-21T13:23:23;7.37;;;5.63;;
54929;SDS011;40833;53.238;6.576;2023-11-21T13:25:49;8.57;;;5.73;;
54929;SDS011;40833;53.238;6.576;2023-11-21T13:28:15;5.50;;;5.00;;
54929;SDS011;40833;53.238;6.576;2023-11-21T13:30:41;6.80;;;5.17;;
54929;SDS011;40833;53.238;6.576;2023-11-21T13:33:09;7.10;;;4.90;;
54929;SDS011;40833;53.238;6.576;2023-11-21T13:35:38;10.37;;;4.67;;
54929;SDS011;40833;53.238;6.576;2023-11-21T13:38:08;6.57;;;4.73;;
54929;SDS011;40833;53.238;6.576;2023-11-21T13:40:36;8.03;;;5.00;;
54929;SDS011;40833;53.238;6.576;2023-11-21T13:43:10;5.93;;;5.15;;
54929;SDS011;40833;53.238;6.576;2023-11-21T13:45:38;7.13;;;5.37;;
54929;SDS011;40833;53.238;6.576;2023-11-21T13:48:07;5.90;;;4.50;;
54929;SDS011;40833;53.238;6.576;2023-11-21T13:50:38;7.60;;;4.60;;
54929;SDS011;40833;53.238;6.576;2023-11-21T13:53:20;6.97;;;4.60;;
54929;SDS011;40833;53.238;6.576;2023-11-21T13:55:49;7.53;;;4.93;;
54929;SDS011;40833;53.238;6.576;2023-11-21T13:58:16;6.50;;;5.03;;
54929;SDS011;40833;53.238;6.576;2023-11-21T14:00:48;6.57;;;4.47;;
54929;SDS011;40833;53.238;6.576;2023-11-21T14:03:22;7.20;;;3.90;;
54929;SDS011;40833;53.238;6.576;2023-11-21T14:06:03;6.10;;;3.50;;
54929;SDS011;40833;53.238;6.576;2023-11-21T14:08:34;5.97;;;3.80;;
54929;SDS011;40833;53.238;6.576;2023-11-21T14:11:00;7.20;;;3.73;;
54929;SDS011;40833;53.238;6.576;2023-11-21T14:13:26;9.57;;;3.70;;
54929;SDS011;40833;53.238;6.576;2023-11-21T14:15:52;8.20;;;4.63;;
54929;SDS011;40833;53.238;6.576;2023-11-21T14:18:27;7.83;;;4.27;;
54929;SDS011;40833;53.238;6.576;2023-11-21T14:21:08;9.50;;;4.77;;
54929;SDS011;40833;53.238;6.576;2023-11-21T14:23:35;6.47;;;3.90;;
54929;SDS011;40833;53.238;6.576;2023-11-21T14:26:03;6.87;;;4.40;;
54929;SDS011;40833;53.238;6.576;2023-11-21T14:28:31;7.87;;;3.40;;
54929;SDS011;40833;53.238;6.576;2023-11-21T14:30:57;4.20;;;3.40;;
54929;SDS011;40833;53.238;6.576;2023-11-21T14:33:22;8.77;;;4.00;;
54929;SDS011;40833;53.238;6.576;2023-11-21T14:35:48;7.53;;;4.20;;
54929;SDS011;40833;53.238;6.576;2023-11-21T14:38:15;8.43;;;3.90;;
54929;SDS011;40833;53.238;6.576;2023-11-21T14:40:41;4.80;;;3.80;;
54929;SDS011;40833;53.238;6.576;2023-11-21T14:43:07;5.60;;;3.87;;